createdAt,value
2023-03-21T00:01:30.481Z,7.70
2023-03-21T00:03:57.772Z,6.82
2023-03-21T00:06:25.185Z,7.28
2023-03-21T00:08:52.419Z,7.97
2023-03-21T00:11:19.617Z,7.60
2023-03-21T00:13:46.821Z,6.95
2023-03-21T00:16:18.973Z,7.07
2023-03-21T00:18:54.867Z,6.60
2023-03-21T00:24:15.676Z,7.15
2023-03-21T00:26:42.918Z,6.65
2023-03-21T00:29:10.304Z,7.10
2023-03-21T00:31:37.421Z,6.50
2023-03-21T00:34:04.753Z,7.35
2023-03-21T00:36:32.280Z,6.30
2023-03-21T00:39:01.062Z,6.97
2023-03-21T00:41:41.423Z,7.32
2023-03-21T00:44:12.111Z,6.95
2023-03-21T00:46:47.321Z,7.20
2023-03-21T00:49:20.973Z,7.50
2023-03-21T00:51:51.899Z,6.97
2023-03-21T00:54:19.780Z,6.75
2023-03-21T00:56:46.971Z,6.68
2023-03-21T00:59:14.169Z,5.63
2023-03-21T01:01:41.409Z,5.43
2023-03-21T01:04:13.786Z,5.93
2023-03-21T01:06:45.275Z,5.93
2023-03-21T01:09:18.007Z,6.00
2023-03-21T01:11:45.845Z,5.63
2023-03-21T01:14:22.350Z,6.07
2023-03-21T01:16:53.097Z,7.28
2023-03-21T01:19:35.237Z,6.82
2023-03-21T01:22:08.926Z,8.15
2023-03-21T01:24:40.447Z,8.63
2023-03-21T01:27:14.060Z,7.72
2023-03-21T01:29:41.143Z,8.43
2023-03-21T01:32:08.361Z,8.70
2023-03-21T01:34:36.511Z,8.02
2023-03-21T01:37:04.031Z,8.15
2023-03-21T01:39:33.937Z,9.13
2023-03-21T01:42:01.241Z,7.85
2023-03-21T01:44:29.199Z,7.40
2023-03-21T01:47:09.780Z,7.03
2023-03-21T01:49:48.084Z,6.85
2023-03-21T01:52:35.438Z,5.75
2023-03-21T01:55:07.572Z,5.82
2023-03-21T01:57:54.898Z,7.88
2023-03-21T02:00:29.769Z,9.02
2023-03-21T02:03:11.320Z,14.05
2023-03-21T02:05:55.090Z,12.27
2023-03-21T02:08:30.570Z,8.73
2023-03-21T02:11:05.938Z,6.63
2023-03-21T02:13:33.095Z,6.15
2023-03-21T02:16:06.869Z,5.75
2023-03-21T02:18:40.237Z,4.30
2023-03-21T02:21:22.294Z,4.22
2023-03-21T02:24:12.670Z,3.97
2023-03-21T02:27:04.007Z,4.15
2023-03-21T02:29:56.069Z,3.95
2023-03-21T02:32:38.395Z,3.90
2023-03-21T02:35:21.359Z,4.25
2023-03-21T02:38:11.716Z,4.22
2023-03-21T02:41:00.404Z,3.70
2023-03-21T02:43:53.363Z,3.70
2023-03-21T02:46:40.190Z,3.80
2023-03-21T02:49:17.313Z,4.22
2023-03-21T02:51:46.889Z,4.50
2023-03-21T02:54:38.404Z,4.38
2023-03-21T02:57:06.346Z,4.18
2023-03-21T02:59:39.394Z,4.38
2023-03-21T03:02:08.918Z,4.32
2023-03-21T03:04:36.201Z,4.25
2023-03-21T03:07:29.522Z,4.13
2023-03-21T03:10:12.857Z,4.13
2023-03-21T03:12:50.845Z,4.30
2023-03-21T03:15:51.793Z,3.72
2023-03-21T03:18:46.533Z,3.42
2023-03-21T03:21:28.948Z,3.40
2023-03-21T03:24:36.973Z,3.30
2023-03-21T03:27:15.917Z,3.13
2023-03-21T03:29:47.359Z,3.25
2023-03-21T03:32:27.324Z,3.25
2023-03-21T03:34:58.275Z,3.08
2023-03-21T03:37:29.546Z,2.97
2023-03-21T03:40:17.080Z,3.50
2023-03-21T03:42:51.321Z,4.38
2023-03-21T03:45:20.469Z,5.20
2023-03-21T03:48:15.933Z,3.83
2023-03-21T03:50:51.647Z,3.47
2023-03-21T03:53:27.473Z,4.00
2023-03-21T03:55:56.757Z,3.90
2023-03-21T03:58:39.478Z,3.78
2023-03-21T04:01:12.638Z,4.00
2023-03-21T04:03:49.814Z,4.20
2023-03-21T04:06:19.948Z,3.65
2023-03-21T04:08:47.082Z,4.03
2023-03-21T04:11:16.500Z,3.80
2023-03-21T04:13:43.673Z,4.57
2023-03-21T04:16:13.187Z,3.55
2023-03-21T04:18:42.279Z,3.85
2023-03-21T04:21:11.258Z,3.95
2023-03-21T04:23:38.688Z,3.80
2023-03-21T04:26:06.686Z,4.00
2023-03-21T04:28:36.458Z,3.80
2023-03-21T04:31:16.155Z,3.75
2023-03-21T04:33:51.567Z,3.40
2023-03-21T04:36:30.941Z,3.65
2023-03-21T04:39:01.763Z,3.53
2023-03-21T04:41:29.333Z,4.15
2023-03-21T04:43:56.794Z,4.10
2023-03-21T04:46:24.234Z,4.07
2023-03-21T04:48:51.369Z,4.47
2023-03-21T04:51:18.630Z,5.00
2023-03-21T04:53:47.114Z,5.70
2023-03-21T04:56:14.301Z,8.02
2023-03-21T04:58:42.577Z,5.22
2023-03-21T05:01:09.817Z,5.72
2023-03-21T05:03:40.536Z,14.35
2023-03-21T05:06:09.411Z,6.63
2023-03-21T05:08:37.479Z,4.90
2023-03-21T05:11:05.484Z,4.80
2023-03-21T05:13:32.619Z,5.00
2023-03-21T05:15:59.739Z,5.13
2023-03-21T05:18:27.129Z,6.35
2023-03-21T05:20:54.752Z,6.30
2023-03-21T05:23:23.696Z,5.03
2023-03-21T05:25:51.555Z,4.97
2023-03-21T05:28:18.694Z,5.65
2023-03-21T05:30:46.937Z,6.72
2023-03-21T05:33:14.366Z,7.15
2023-03-21T05:35:41.514Z,7.43
2023-03-21T05:38:08.743Z,7.32
2023-03-21T05:40:35.918Z,5.93
2023-03-21T05:43:03.085Z,5.55
2023-03-21T05:45:30.265Z,5.65
2023-03-21T05:47:57.515Z,5.10
2023-03-21T05:50:24.800Z,5.03
2023-03-21T05:52:52.100Z,3.95
2023-03-21T05:55:19.483Z,4.18
2023-03-21T05:57:46.814Z,4.25
2023-03-21T06:00:15.073Z,3.95
2023-03-21T06:02:42.453Z,3.80
2023-03-21T06:05:09.861Z,3.83
2023-03-21T06:07:37.737Z,3.90
2023-03-21T06:10:07.043Z,4.25
2023-03-21T06:12:34.869Z,3.80
2023-03-21T06:15:02.579Z,4.43
2023-03-21T06:17:29.671Z,4.90
2023-03-21T06:19:56.958Z,4.70
2023-03-21T06:22:24.083Z,4.15
2023-03-21T06:24:51.258Z,3.90
2023-03-21T06:27:18.442Z,3.78
2023-03-21T06:29:46.594Z,4.93
2023-03-21T06:32:13.827Z,7.13
2023-03-21T06:34:41.044Z,10.77
2023-03-21T06:37:08.372Z,6.55
2023-03-21T06:39:35.798Z,4.88
2023-03-21T06:42:03.107Z,5.10
2023-03-21T06:44:30.449Z,5.60
2023-03-21T06:46:57.624Z,8.57
2023-03-21T06:49:27.016Z,6.20
2023-03-21T06:51:54.548Z,6.63
2023-03-21T06:54:21.770Z,6.57
2023-03-21T06:56:49.205Z,5.72
2023-03-21T06:59:16.563Z,5.95
2023-03-21T07:01:43.983Z,7.20
2023-03-21T07:04:11.449Z,5.38
2023-03-21T07:06:38.869Z,6.18
2023-03-21T07:09:06.683Z,4.22
2023-03-21T07:11:35.730Z,4.35
2023-03-21T07:14:02.969Z,4.60
2023-03-21T07:16:30.168Z,4.15
2023-03-21T07:18:57.475Z,3.40
2023-03-21T07:21:24.658Z,4.70
2023-03-21T07:23:52.285Z,3.38
2023-03-21T07:26:19.505Z,2.85
2023-03-21T07:28:46.725Z,2.80
2023-03-21T07:31:16.791Z,3.20
2023-03-21T07:33:44.246Z,3.00
2023-03-21T07:36:15.543Z,2.90
2023-03-21T07:38:44.380Z,2.50
2023-03-21T07:41:11.965Z,3.35
2023-03-21T07:43:39.550Z,2.90
2023-03-21T07:46:07.218Z,2.67
2023-03-21T07:48:34.824Z,3.00
2023-03-21T07:51:02.590Z,2.90
2023-03-21T07:53:29.769Z,3.53
2023-03-21T07:55:57.107Z,3.17
2023-03-21T07:58:25.288Z,3.08
2023-03-21T08:00:53.177Z,3.40
2023-03-21T08:03:20.396Z,2.88
2023-03-21T08:05:47.677Z,2.80
2023-03-21T08:08:14.978Z,2.95
2023-03-21T08:10:44.617Z,2.70
2023-03-21T08:13:13.876Z,3.03
2023-03-21T08:15:42.609Z,2.80
2023-03-21T08:18:11.393Z,2.92
2023-03-21T08:20:39.144Z,3.00
2023-03-21T08:23:06.310Z,2.97
2023-03-21T08:25:33.534Z,3.42
2023-03-21T08:28:01.021Z,4.35
2023-03-21T08:30:29.631Z,3.10
2023-03-21T08:33:01.764Z,3.20
2023-03-21T08:35:30.673Z,3.38
2023-03-21T08:37:58.262Z,3.42
2023-03-21T08:40:26.117Z,3.00
2023-03-21T08:42:53.355Z,3.20
2023-03-21T08:45:20.731Z,3.63
2023-03-21T08:47:47.891Z,3.33
2023-03-21T08:50:17.669Z,3.38
2023-03-21T08:52:45.509Z,3.60
2023-03-21T08:55:13.395Z,3.40
2023-03-21T08:57:41.245Z,3.58
2023-03-21T09:00:13.353Z,4.18
2023-03-21T09:02:44.497Z,3.45
2023-03-21T09:05:12.452Z,3.97
2023-03-21T09:07:40.966Z,4.20
2023-03-21T09:10:21.105Z,3.58
2023-03-21T09:12:51.272Z,3.88
2023-03-21T09:15:22.130Z,4.10
2023-03-21T09:17:52.934Z,3.85
2023-03-21T09:20:26.582Z,3.78
2023-03-21T09:22:54.628Z,3.88
2023-03-21T09:25:22.195Z,3.78
2023-03-21T09:27:49.630Z,3.80
2023-03-21T09:30:19.603Z,3.80
2023-03-21T09:32:49.131Z,3.83
2023-03-21T09:35:18.926Z,3.97
2023-03-21T09:37:50.183Z,3.80
2023-03-21T09:41:04.552Z,3.85
2023-03-21T09:43:49.808Z,3.60
2023-03-21T09:46:49.627Z,3.85
2023-03-21T09:49:38.791Z,3.53
2023-03-21T09:52:18.363Z,3.75
2023-03-21T09:54:45.970Z,3.90
2023-03-21T09:57:38.336Z,4.40
2023-03-21T10:00:14.645Z,3.90
2023-03-21T10:02:48.073Z,3.70
2023-03-21T10:05:27.340Z,3.70
2023-03-21T10:08:18.371Z,3.20
2023-03-21T10:10:50.579Z,3.25
2023-03-21T10:13:26.198Z,3.53
2023-03-21T10:16:02.628Z,3.85
2023-03-21T10:18:31.752Z,3.85
2023-03-21T10:20:59.474Z,2.70
2023-03-21T10:23:30.055Z,2.70
2023-03-21T10:26:05.559Z,2.47
2023-03-21T10:28:51.967Z,3.03
2023-03-21T10:31:25.575Z,3.13
2023-03-21T10:33:55.647Z,3.22
2023-03-21T10:36:26.198Z,3.20
2023-03-21T10:39:01.832Z,3.58
2023-03-21T10:41:29.014Z,3.80
2023-03-21T10:44:33.662Z,3.65
2023-03-21T10:47:06.491Z,3.20
2023-03-21T10:49:40.560Z,3.38
2023-03-21T10:52:21.589Z,3.70
2023-03-21T10:54:50.088Z,3.30
2023-03-21T10:57:22.721Z,3.28
2023-03-21T10:59:56.942Z,3.88
2023-03-21T11:02:33.630Z,3.67
2023-03-21T11:05:23.243Z,3.75
2023-03-21T11:08:03.174Z,3.83
2023-03-21T11:10:38.376Z,3.42
2023-03-21T11:13:18.981Z,3.55
2023-03-21T11:15:56.891Z,3.80
2023-03-21T11:18:26.960Z,3.35
2023-03-21T11:21:05.962Z,3.65
2023-03-21T11:23:39.015Z,3.40
2023-03-21T11:26:11.610Z,4.03
2023-03-21T11:28:45.056Z,3.90
2023-03-21T11:31:12.683Z,3.97
2023-03-21T11:33:51.135Z,3.47
2023-03-21T11:36:22.096Z,3.40
2023-03-21T11:38:58.159Z,3.45
2023-03-21T11:41:35.182Z,3.28
2023-03-21T11:44:03.250Z,3.33
2023-03-21T11:46:32.212Z,3.60
2023-03-21T11:49:01.601Z,3.90
2023-03-21T11:51:44.704Z,3.45
2023-03-21T11:54:33.317Z,3.58
2023-03-21T11:57:04.033Z,3.47
2023-03-21T11:59:48.548Z,2.65
2023-03-21T12:02:30.848Z,3.10
2023-03-21T12:05:04.436Z,2.80
2023-03-21T12:07:34.285Z,3.20
2023-03-21T12:10:19.872Z,3.38
2023-03-21T12:13:18.745Z,3.70
2023-03-21T12:16:06.121Z,3.30
2023-03-21T12:18:51.298Z,3.58
2023-03-21T12:21:48.002Z,3.28
2023-03-21T12:24:46.040Z,4.13
2023-03-21T12:27:24.777Z,3.08
2023-03-21T12:30:23.986Z,3.72
2023-03-21T12:33:13.783Z,3.80
2023-03-21T12:36:01.759Z,3.58
2023-03-21T12:38:35.974Z,3.63
2023-03-21T12:41:34.863Z,3.33
2023-03-21T12:44:16.411Z,3.60
2023-03-21T12:46:55.243Z,3.67
2023-03-21T12:49:44.152Z,2.75
2023-03-21T12:52:22.231Z,3.67
2023-03-21T12:54:54.035Z,3.65
2023-03-21T12:57:47.731Z,3.78
2023-03-21T13:00:27.678Z,3.72
2023-03-21T13:03:12.698Z,4.78
2023-03-21T13:05:48.498Z,4.10
2023-03-21T13:08:31.551Z,4.00
2023-03-21T13:11:01.359Z,4.47
2023-03-21T13:13:41.819Z,4.40
2023-03-21T13:16:27.882Z,4.63
2023-03-21T13:19:17.526Z,4.22
2023-03-21T13:21:47.324Z,4.88
2023-03-21T13:24:25.787Z,4.60
2023-03-21T13:27:13.064Z,4.22
2023-03-21T13:29:47.684Z,4.30
2023-03-21T13:32:26.789Z,4.40
2023-03-21T13:35:15.865Z,4.35
2023-03-21T13:37:59.964Z,4.47
2023-03-21T13:40:43.003Z,4.57
2023-03-21T13:43:40.804Z,4.40
2023-03-21T13:46:11.894Z,4.40
2023-03-21T13:49:02.710Z,4.95
2023-03-21T13:51:29.750Z,4.38
2023-03-21T13:54:04.491Z,4.13
2023-03-21T13:56:50.614Z,4.40
2023-03-21T13:59:37.466Z,4.80
2023-03-21T14:02:20.317Z,4.32
2023-03-21T14:05:04.906Z,4.35
2023-03-21T14:07:43.236Z,5.10
2023-03-21T14:10:26.039Z,4.22
2023-03-21T14:12:54.191Z,3.97
2023-03-21T14:15:27.870Z,3.83
2023-03-21T14:18:06.390Z,4.30
2023-03-21T14:20:45.056Z,4.80
2023-03-21T14:23:16.603Z,4.22
2023-03-21T14:25:47.771Z,4.40
2023-03-21T14:28:33.043Z,4.38
2023-03-21T14:31:01.315Z,4.18
2023-03-21T14:33:44.368Z,3.92
2023-03-21T14:36:16.110Z,3.70
2023-03-21T14:38:43.729Z,4.38
2023-03-21T14:41:24.710Z,4.18
2023-03-21T14:44:22.507Z,3.70
2023-03-21T14:46:49.674Z,3.40
2023-03-21T14:49:25.300Z,4.30
2023-03-21T14:51:55.181Z,4.50
2023-03-21T14:54:23.372Z,3.45
2023-03-21T14:56:53.877Z,3.72
2023-03-21T14:59:26.088Z,3.83
2023-03-21T15:01:54.933Z,3.95
2023-03-21T15:04:22.300Z,3.88
2023-03-21T15:06:58.003Z,3.80
2023-03-21T15:09:31.102Z,4.32
2023-03-21T15:11:59.155Z,4.20
2023-03-21T15:14:33.096Z,4.20
2023-03-21T15:17:04.263Z,3.67
2023-03-21T15:19:37.724Z,3.70
2023-03-21T15:22:23.034Z,3.90
2023-03-21T15:24:54.399Z,4.50
2023-03-21T15:27:25.216Z,3.65
2023-03-21T15:29:57.144Z,3.47
2023-03-21T15:32:27.630Z,4.22
2023-03-21T15:34:56.946Z,3.42
2023-03-21T15:37:28.354Z,3.40
2023-03-21T15:40:14.518Z,3.53
2023-03-21T15:42:42.474Z,3.50
2023-03-21T15:45:30.491Z,3.22
2023-03-21T15:48:12.344Z,3.22
2023-03-21T15:50:42.869Z,3.20
2023-03-21T15:53:17.446Z,3.70
2023-03-21T15:55:50.124Z,3.70
2023-03-21T15:58:26.580Z,3.75
2023-03-21T16:00:56.222Z,3.63
2023-03-21T16:03:30.048Z,3.40
2023-03-21T16:06:25.829Z,3.78
2023-03-21T16:09:14.893Z,3.67
2023-03-21T16:11:44.544Z,3.75
2023-03-21T16:14:11.647Z,3.67
2023-03-21T16:16:39.380Z,3.92
2023-03-21T16:19:07.534Z,3.90
2023-03-21T16:21:35.623Z,4.05
2023-03-21T16:24:02.661Z,4.40
2023-03-21T16:26:38.948Z,3.67
2023-03-21T16:29:08.576Z,3.50
2023-03-21T16:31:37.440Z,3.80
2023-03-21T16:34:05.292Z,3.88
2023-03-21T16:36:36.795Z,3.72
2023-03-21T16:39:17.888Z,3.90
2023-03-21T16:41:45.520Z,4.10
2023-03-21T16:44:13.050Z,4.05
2023-03-21T16:46:40.898Z,3.45
2023-03-21T16:49:20.014Z,4.35
2023-03-21T16:51:47.734Z,4.28
2023-03-21T16:54:14.825Z,4.18
2023-03-21T16:56:51.797Z,4.70
2023-03-21T16:59:19.041Z,4.78
2023-03-21T17:01:48.007Z,4.90
2023-03-21T17:04:17.771Z,5.30
2023-03-21T17:06:49.699Z,5.20
2023-03-21T17:09:23.154Z,5.13
2023-03-21T17:11:50.467Z,5.32
2023-03-21T17:14:19.017Z,5.85
2023-03-21T17:16:46.373Z,6.93
2023-03-21T17:19:26.469Z,6.70
2023-03-21T17:21:55.472Z,7.10
2023-03-21T17:24:24.174Z,7.07
2023-03-21T17:26:51.366Z,7.10
2023-03-21T17:29:19.267Z,7.18
2023-03-21T17:31:51.034Z,6.50
2023-03-21T17:34:18.857Z,6.38
2023-03-21T17:36:47.993Z,5.95
2023-03-21T17:39:27.360Z,6.72
2023-03-21T17:41:56.193Z,6.85
2023-03-21T17:44:23.844Z,6.68
2023-03-21T17:46:52.242Z,6.25
2023-03-21T17:49:22.162Z,6.35
2023-03-21T17:51:53.019Z,6.47
2023-03-21T17:54:21.389Z,6.22
2023-03-21T17:56:49.506Z,7.43
2023-03-21T17:59:17.310Z,6.63
2023-03-21T18:01:45.501Z,6.53
2023-03-21T18:04:12.921Z,6.10
2023-03-21T18:06:40.905Z,5.78
2023-03-21T18:09:12.588Z,5.50
2023-03-21T18:11:41.816Z,5.38
2023-03-21T18:14:17.237Z,5.60
2023-03-21T18:16:46.760Z,6.80
2023-03-21T18:19:16.421Z,8.45
2023-03-21T18:21:45.800Z,7.60
2023-03-21T18:24:15.955Z,7.03
2023-03-21T18:26:43.934Z,6.78
2023-03-21T18:30:15.816Z,8.80
2023-03-21T18:32:08.057Z,10.13
2023-03-21T18:34:39.042Z,9.02
2023-03-21T18:37:08.781Z,9.75
2023-03-21T18:39:38.805Z,6.72
2023-03-21T18:42:07.687Z,6.97
2023-03-21T18:44:46.158Z,6.95
2023-03-21T18:47:15.435Z,6.35
2023-03-21T18:52:31.670Z,5.85
2023-03-21T18:54:59.830Z,6.38
2023-03-21T18:57:36.497Z,6.03
2023-03-21T19:00:15.271Z,6.40
2023-03-21T19:02:47.781Z,5.70
2023-03-21T19:05:23.297Z,6.38
2023-03-21T19:07:53.198Z,5.90
2023-03-21T19:10:26.235Z,6.22
2023-03-21T19:12:56.387Z,6.82
2023-03-21T19:15:26.798Z,7.35
2023-03-21T19:20:47.547Z,8.02
2023-03-21T19:23:17.753Z,8.15
2023-03-21T19:25:47.419Z,8.10
2023-03-21T19:28:15.123Z,7.18
2023-03-21T19:30:50.383Z,7.65
2023-03-21T19:33:20.737Z,6.72
2023-03-21T19:35:50.357Z,6.88
2023-03-21T19:38:18.540Z,7.20
2023-03-21T19:40:46.867Z,9.32
2023-03-21T19:43:33.224Z,10.38
2023-03-21T19:46:01.682Z,8.50
2023-03-21T19:48:30.349Z,7.28
2023-03-21T19:51:26.302Z,7.68
2023-03-21T19:53:46.352Z,8.45
2023-03-21T19:56:22.321Z,7.93
2023-03-21T19:58:53.383Z,8.80
2023-03-21T20:01:21.905Z,7.97
2023-03-21T20:03:51.365Z,7.78
2023-03-21T20:06:22.948Z,7.70
2023-03-21T20:11:43.199Z,8.00
2023-03-21T20:14:11.385Z,8.63
2023-03-21T20:16:43.260Z,8.35
2023-03-21T20:19:16.650Z,8.75
2023-03-21T20:21:52.250Z,10.45
2023-03-21T20:24:23.350Z,9.73
2023-03-21T20:26:54.299Z,10.05
2023-03-21T20:32:10.811Z,9.95
2023-03-21T20:34:41.020Z,10.20
2023-03-21T20:37:09.248Z,9.90
2023-03-21T20:39:41.567Z,10.95
2023-03-21T20:42:09.689Z,11.52
2023-03-21T20:44:58.761Z,11.63
2023-03-21T20:47:25.874Z,12.18
2023-03-21T20:49:55.263Z,11.93
2023-03-21T20:52:57.437Z,11.95
2023-03-21T20:55:17.631Z,11.85
2023-03-21T20:57:48.553Z,11.10
2023-03-21T21:00:17.962Z,10.98
2023-03-21T21:02:48.811Z,10.27
2023-03-21T21:05:25.763Z,9.82
2023-03-21T21:07:57.126Z,10.45
2023-03-21T21:10:25.825Z,13.63
2023-03-21T21:12:54.762Z,13.25
2023-03-21T21:15:23.738Z,14.52
2023-03-21T21:18:05.371Z,18.70
2023-03-21T21:20:36.850Z,16.92
2023-03-21T21:23:05.755Z,16.40
2023-03-21T21:25:34.249Z,17.13
2023-03-21T21:28:02.244Z,14.98
2023-03-21T21:30:30.157Z,17.10
2023-03-21T21:33:01.022Z,16.55
2023-03-21T21:35:28.531Z,16.15
2023-03-21T21:37:56.444Z,15.98
2023-03-21T21:40:23.658Z,14.70
2023-03-21T21:42:51.002Z,15.05
2023-03-21T21:45:19.127Z,16.77
2023-03-21T21:47:46.881Z,16.20
2023-03-21T21:50:14.553Z,17.08
2023-03-21T21:52:43.895Z,15.00
2023-03-21T21:55:11.142Z,12.75
2023-03-21T21:57:40.138Z,13.50
2023-03-21T22:00:13.455Z,13.15
2023-03-21T22:02:41.633Z,12.57
2023-03-21T22:05:09.590Z,14.55
2023-03-21T22:07:37.752Z,13.07
2023-03-21T22:10:06.133Z,14.75
2023-03-21T22:12:33.334Z,18.33
2023-03-21T22:15:00.655Z,12.18
2023-03-21T22:17:27.736Z,16.33
2023-03-21T22:20:05.218Z,19.33
2023-03-21T22:22:37.372Z,21.33
2023-03-21T22:25:06.921Z,17.15
2023-03-21T22:27:34.203Z,13.57
2023-03-21T22:30:05.111Z,13.27
2023-03-21T22:32:33.004Z,12.15
2023-03-21T22:35:02.707Z,9.93
2023-03-21T22:37:32.262Z,10.32
2023-03-21T22:39:59.464Z,9.30
2023-03-21T22:42:27.323Z,9.98
2023-03-21T22:44:54.456Z,9.25
2023-03-21T22:47:21.513Z,9.05
2023-03-21T22:49:48.618Z,8.75
2023-03-21T22:52:15.931Z,8.77
2023-03-21T22:54:43.071Z,8.45
2023-03-21T22:57:10.176Z,7.80
2023-03-21T22:59:37.282Z,8.13
2023-03-21T23:02:04.423Z,8.32
2023-03-21T23:04:31.645Z,8.23
2023-03-21T23:06:59.047Z,8.00
2023-03-21T23:09:27.556Z,8.38
2023-03-21T23:11:54.948Z,8.15
2023-03-21T23:14:22.842Z,8.38
2023-03-21T23:16:52.484Z,8.43
2023-03-21T23:19:21.421Z,8.65
2023-03-21T23:21:49.299Z,8.07
2023-03-21T23:24:16.404Z,7.78
2023-03-21T23:26:43.627Z,7.88
2023-03-21T23:29:12.125Z,7.45
2023-03-21T23:31:39.379Z,7.35
2023-03-21T23:34:07.020Z,7.32
2023-03-21T23:36:34.180Z,6.90
2023-03-21T23:39:01.306Z,6.70
2023-03-21T23:41:28.464Z,6.47
2023-03-21T23:43:55.830Z,6.95
2023-03-21T23:46:23.067Z,6.40
2023-03-21T23:48:50.162Z,6.32
2023-03-21T23:51:18.377Z,6.60
2023-03-21T23:53:46.457Z,6.15
2023-03-21T23:56:24.649Z,5.75
2023-03-21T23:58:52.124Z,5.28
